createdAt,value
2018-12-18T00:00:50.674Z,15.77
2018-12-18T00:03:20.680Z,13.10
2018-12-18T00:05:48.791Z,13.47
2018-12-18T00:08:16.619Z,9.67
2018-12-18T00:10:51.209Z,11.77
2018-12-18T00:13:19.343Z,16.73
2018-12-18T00:15:46.900Z,18.13
2018-12-18T00:18:14.814Z,8.63
2018-12-18T00:20:42.775Z,16.00
2018-12-18T00:23:11.275Z,13.13
2018-12-18T00:25:39.157Z,14.40
2018-12-18T00:28:08.692Z,13.07
2018-12-18T00:30:37.013Z,13.93
2018-12-18T00:33:04.973Z,12.87
2018-12-18T00:35:32.998Z,14.60
2018-12-18T00:38:01.127Z,15.13
2018-12-18T00:40:28.757Z,15.77
2018-12-18T00:42:57.132Z,9.87
2018-12-18T00:45:24.941Z,11.77
2018-12-18T00:47:54.443Z,11.23
2018-12-18T00:50:22.120Z,17.57
2018-12-18T00:52:50.174Z,10.03
2018-12-18T00:55:19.783Z,15.00
2018-12-18T00:57:47.853Z,14.20
2018-12-18T01:00:15.629Z,11.40
2018-12-18T01:02:44.754Z,15.10
2018-12-18T01:05:12.911Z,13.20
2018-12-18T01:07:40.587Z,14.50
2018-12-18T01:10:09.196Z,12.37
2018-12-18T01:12:37.215Z,20.53
2018-12-18T01:15:06.612Z,16.87
2018-12-18T01:17:34.475Z,16.03
2018-12-18T01:20:02.619Z,13.27
2018-12-18T01:22:31.520Z,16.53
2018-12-18T01:24:59.474Z,13.70
2018-12-18T01:27:27.606Z,17.73
2018-12-18T01:29:55.195Z,13.73
2018-12-18T01:32:24.210Z,12.57
2018-12-18T01:34:52.021Z,19.30
2018-12-18T01:37:19.700Z,21.13
2018-12-18T01:39:47.809Z,14.30
2018-12-18T01:42:15.637Z,12.63
2018-12-18T01:44:43.669Z,14.83
2018-12-18T01:47:11.586Z,13.60
2018-12-18T01:49:39.656Z,12.07
2018-12-18T01:52:07.262Z,10.47
2018-12-18T01:54:35.043Z,8.33
2018-12-18T01:57:02.937Z,13.03
2018-12-18T01:59:30.540Z,13.00
2018-12-18T02:01:58.118Z,14.80
2018-12-18T02:04:25.688Z,14.43
2018-12-18T02:06:53.247Z,11.73
2018-12-18T02:09:20.787Z,10.70
2018-12-18T02:11:48.323Z,10.10
2018-12-18T02:14:15.863Z,14.73
2018-12-18T02:16:43.390Z,12.13
2018-12-18T02:19:10.952Z,10.03
2018-12-18T02:21:38.497Z,10.07
2018-12-18T02:24:06.041Z,9.57
2018-12-18T02:26:33.626Z,9.70
2018-12-18T02:29:01.175Z,11.40
2018-12-18T02:31:28.694Z,11.50
2018-12-18T02:33:56.245Z,13.17
2018-12-18T02:36:23.766Z,9.03
2018-12-18T02:38:51.326Z,9.70
2018-12-18T02:41:18.886Z,16.93
2018-12-18T02:43:46.401Z,9.97
2018-12-18T02:46:15.077Z,12.50
2018-12-18T02:48:44.469Z,10.23
2018-12-18T02:51:12.068Z,12.33
2018-12-18T02:53:39.585Z,13.47
2018-12-18T02:56:07.185Z,9.27
2018-12-18T02:58:34.766Z,11.13
2018-12-18T03:01:02.315Z,10.07
2018-12-18T03:03:29.858Z,8.43
2018-12-18T03:05:57.466Z,9.80
2018-12-18T03:08:24.989Z,11.93
2018-12-18T03:10:52.566Z,14.40
2018-12-18T03:13:20.088Z,10.37
2018-12-18T03:15:47.652Z,14.87
2018-12-18T03:18:15.171Z,11.83
2018-12-18T03:20:42.727Z,14.30
2018-12-18T03:23:10.378Z,20.70
2018-12-18T03:25:37.997Z,15.20
2018-12-18T03:28:05.679Z,17.23
2018-12-18T03:30:33.425Z,13.73
2018-12-18T03:33:01.103Z,20.67
2018-12-18T03:35:29.576Z,18.50
2018-12-18T03:37:57.157Z,16.10
2018-12-18T03:40:25.424Z,16.73
2018-12-18T03:42:53.028Z,13.23
2018-12-18T03:45:20.639Z,12.83
2018-12-18T03:47:48.193Z,15.17
2018-12-18T03:50:15.769Z,16.00
2018-12-18T03:52:43.364Z,18.43
2018-12-18T03:55:10.945Z,16.17
2018-12-18T03:57:40.576Z,21.30
2018-12-18T04:00:12.915Z,16.63
2018-12-18T04:02:40.616Z,17.00
2018-12-18T04:05:09.238Z,17.43
2018-12-18T04:07:36.877Z,17.73
2018-12-18T04:10:04.928Z,19.20
2018-12-18T04:12:33.857Z,13.60
2018-12-18T04:15:04.796Z,12.50
2018-12-18T04:17:35.243Z,14.70
2018-12-18T04:20:03.933Z,10.93
2018-12-18T04:22:33.382Z,13.77
2018-12-18T04:25:01.831Z,15.87
2018-12-18T04:27:30.831Z,13.83
2018-12-18T04:29:59.854Z,13.57
2018-12-18T04:32:28.046Z,12.07
2018-12-18T04:34:56.161Z,13.27
2018-12-18T04:37:24.406Z,12.00
2018-12-18T04:39:52.644Z,12.93
2018-12-18T04:42:21.586Z,13.13
2018-12-18T04:44:49.763Z,11.87
2018-12-18T04:47:17.508Z,13.93
2018-12-18T04:49:45.069Z,11.87
2018-12-18T04:52:12.635Z,11.97
2018-12-18T04:54:40.181Z,13.30
2018-12-18T04:57:07.763Z,10.63
2018-12-18T04:59:35.341Z,16.93
2018-12-18T05:02:02.946Z,12.13
2018-12-18T05:04:30.478Z,11.30
2018-12-18T05:06:58.053Z,13.80
2018-12-18T05:09:25.603Z,11.47
2018-12-18T05:11:53.317Z,12.67
2018-12-18T05:14:20.846Z,11.57
2018-12-18T05:16:48.411Z,12.30
2018-12-18T05:19:15.985Z,9.13
2018-12-18T05:21:43.600Z,10.07
2018-12-18T05:24:11.128Z,15.67
2018-12-18T05:26:39.085Z,15.33
2018-12-18T05:29:07.793Z,15.70
2018-12-18T05:31:35.966Z,14.87
2018-12-18T05:34:03.566Z,14.77
2018-12-18T05:36:31.836Z,12.67
2018-12-18T05:39:00.237Z,15.47
2018-12-18T05:41:28.311Z,14.47
2018-12-18T05:43:56.847Z,18.40
2018-12-18T05:46:25.634Z,14.93
2018-12-18T05:48:53.756Z,15.90
2018-12-18T05:51:21.374Z,13.63
2018-12-18T05:53:48.944Z,15.57
2018-12-18T05:56:16.801Z,12.80
2018-12-18T05:58:44.638Z,16.00
2018-12-18T06:01:12.242Z,18.20
2018-12-18T06:03:39.805Z,15.50
2018-12-18T06:06:07.497Z,21.47
2018-12-18T06:08:35.093Z,12.57
2018-12-18T06:11:02.670Z,19.83
2018-12-18T06:13:30.202Z,22.23
2018-12-18T06:15:58.025Z,18.53
2018-12-18T06:18:25.625Z,15.13
2018-12-18T06:20:53.158Z,16.27
2018-12-18T06:23:20.711Z,16.60
2018-12-18T06:25:48.237Z,15.87
2018-12-18T06:28:15.789Z,20.73
2018-12-18T06:30:43.318Z,14.77
2018-12-18T06:33:10.960Z,15.63
2018-12-18T06:35:38.488Z,15.90
2018-12-18T06:38:06.033Z,19.03
2018-12-18T06:40:33.567Z,26.37
2018-12-18T06:43:01.131Z,19.50
2018-12-18T06:45:28.656Z,23.63
2018-12-18T06:47:56.213Z,25.47
2018-12-18T06:50:23.868Z,19.67
2018-12-18T06:52:52.528Z,17.30
2018-12-18T06:55:20.233Z,24.23
2018-12-18T06:57:47.787Z,35.60
2018-12-18T07:00:15.312Z,19.60
2018-12-18T07:02:43.008Z,18.87
2018-12-18T07:05:16.520Z,22.03
2018-12-18T07:07:40.186Z,24.13
2018-12-18T07:10:07.717Z,24.27
2018-12-18T07:12:35.274Z,22.33
2018-12-18T07:15:02.809Z,51.40
2018-12-18T07:17:30.375Z,114.67
2018-12-18T07:19:57.911Z,23.73
2018-12-18T07:22:25.466Z,18.47
2018-12-18T07:24:52.993Z,17.87
2018-12-18T07:27:20.553Z,20.33
2018-12-18T07:29:48.078Z,20.90
2018-12-18T07:32:15.732Z,21.37
2018-12-18T07:34:43.273Z,30.43
2018-12-18T07:37:10.831Z,20.30
2018-12-18T07:39:38.367Z,15.80
2018-12-18T07:42:05.932Z,20.53
2018-12-18T07:44:33.466Z,26.13
2018-12-18T07:47:01.023Z,20.47
2018-12-18T07:49:28.545Z,17.97
2018-12-18T07:51:56.105Z,19.50
2018-12-18T07:54:23.696Z,22.90
2018-12-18T07:56:51.547Z,21.83
2018-12-18T07:59:19.175Z,21.87
2018-12-18T08:01:46.728Z,20.50
2018-12-18T08:04:14.291Z,21.17
2018-12-18T08:06:41.817Z,22.57
2018-12-18T08:09:09.380Z,18.00
2018-12-18T08:11:36.908Z,19.47
2018-12-18T08:14:04.465Z,19.43
2018-12-18T08:16:31.988Z,22.87
2018-12-18T08:18:59.661Z,22.10
2018-12-18T08:21:27.249Z,21.80
2018-12-18T08:23:54.822Z,21.77
2018-12-18T08:26:22.352Z,26.17
2018-12-18T08:28:49.922Z,28.10
2018-12-18T08:31:17.447Z,31.17
2018-12-18T08:33:45.003Z,36.50
2018-12-18T08:36:12.542Z,40.73
2018-12-18T08:38:40.135Z,38.67
2018-12-18T08:41:08.015Z,33.43
2018-12-18T08:43:35.716Z,34.70
2018-12-18T08:46:09.913Z,31.47
2018-12-18T08:48:32.849Z,29.30
2018-12-18T08:51:00.398Z,30.60
2018-12-18T08:53:27.966Z,28.37
2018-12-18T08:55:55.495Z,28.03
2018-12-18T08:58:23.057Z,32.97
2018-12-18T09:00:50.584Z,34.03
2018-12-18T09:03:18.177Z,30.83
2018-12-18T09:05:45.728Z,25.90
2018-12-18T09:08:13.300Z,31.43
2018-12-18T09:10:40.844Z,29.53
2018-12-18T09:13:08.401Z,34.10
2018-12-18T09:15:41.472Z,32.00
2018-12-18T09:18:09.031Z,46.33
2018-12-18T09:20:36.557Z,39.37
2018-12-18T09:23:04.129Z,32.53
2018-12-18T09:25:31.646Z,31.90
2018-12-18T09:27:59.203Z,30.53
2018-12-18T09:30:26.720Z,32.90
2018-12-18T09:32:54.344Z,30.20
2018-12-18T09:35:21.873Z,25.23
2018-12-18T09:37:51.416Z,23.00
2018-12-18T09:40:20.972Z,28.77
2018-12-18T09:42:54.263Z,26.50
2018-12-18T09:45:21.843Z,24.93
2018-12-18T09:47:49.408Z,25.20
2018-12-18T09:50:17.000Z,39.13
2018-12-18T09:52:44.523Z,30.93
2018-12-18T09:55:12.177Z,28.80
2018-12-18T09:57:45.372Z,26.27
2018-12-18T10:00:12.933Z,25.67
2018-12-18T10:02:40.461Z,18.07
2018-12-18T10:05:08.978Z,23.43
2018-12-18T10:07:38.270Z,21.13
2018-12-18T10:10:07.688Z,21.73
2018-12-18T10:12:40.821Z,19.20
2018-12-18T10:15:09.180Z,17.33
2018-12-18T10:17:38.722Z,21.03
2018-12-18T10:20:07.603Z,18.23
2018-12-18T10:22:36.632Z,14.47
2018-12-18T10:25:04.652Z,13.53
2018-12-18T10:27:32.360Z,12.67
2018-12-18T10:30:00.062Z,15.70
2018-12-18T10:32:32.035Z,13.83
2018-12-18T10:34:59.897Z,14.33
2018-12-18T10:37:27.444Z,12.63
2018-12-18T10:39:55.649Z,12.33
2018-12-18T10:42:23.272Z,16.93
2018-12-18T10:44:51.363Z,15.27
2018-12-18T10:47:19.223Z,18.63
2018-12-18T10:49:48.158Z,13.40
2018-12-18T10:52:16.027Z,14.87
2018-12-18T10:54:43.793Z,11.40
2018-12-18T10:57:11.729Z,10.63
2018-12-18T10:59:39.280Z,13.57
2018-12-18T11:02:07.722Z,15.43
2018-12-18T11:04:35.550Z,12.93
2018-12-18T11:07:03.837Z,18.77
2018-12-18T11:09:31.422Z,12.30
2018-12-18T11:11:58.970Z,10.97
2018-12-18T11:14:26.467Z,11.90
2018-12-18T11:16:54.010Z,6.13
2018-12-18T11:19:22.391Z,6.83
2018-12-18T11:21:50.701Z,5.37
2018-12-18T11:24:18.297Z,7.20
2018-12-18T11:26:46.137Z,7.70
2018-12-18T11:29:13.675Z,5.67
2018-12-18T11:31:41.217Z,3.60
2018-12-18T11:34:08.728Z,7.13
2018-12-18T11:36:36.268Z,5.67
2018-12-18T11:39:06.100Z,5.83
2018-12-18T11:41:33.651Z,4.40
2018-12-18T11:44:01.151Z,4.83
2018-12-18T11:46:28.704Z,3.50
2018-12-18T11:48:56.215Z,5.50
2018-12-18T11:51:23.756Z,6.40
2018-12-18T11:53:52.482Z,3.03
2018-12-18T11:56:20.921Z,4.93
2018-12-18T11:58:49.113Z,5.33
2018-12-18T12:01:16.677Z,9.13
2018-12-18T12:03:44.300Z,14.30
2018-12-18T12:06:12.871Z,13.70
2018-12-18T12:08:40.862Z,6.87
2018-12-18T12:11:09.089Z,4.83
2018-12-18T12:13:37.062Z,3.60
2018-12-18T12:16:17.267Z,6.80
2018-12-18T12:18:46.955Z,3.87
2018-12-18T12:21:15.803Z,5.17
2018-12-18T12:23:44.281Z,3.00
2018-12-18T12:26:19.051Z,2.80
2018-12-18T12:28:47.018Z,2.93
2018-12-18T12:31:16.609Z,1.93
2018-12-18T12:33:45.238Z,2.83
2018-12-18T12:36:13.783Z,4.43
2018-12-18T12:38:42.062Z,3.27
2018-12-18T12:41:10.332Z,4.00
2018-12-18T12:43:39.140Z,2.60
2018-12-18T12:46:07.854Z,2.73
2018-12-18T12:48:41.797Z,1.73
2018-12-18T12:51:10.271Z,2.70
2018-12-18T12:53:39.234Z,8.60
2018-12-18T12:56:08.903Z,3.00
2018-12-18T12:58:38.026Z,3.17
2018-12-18T13:01:06.936Z,3.47
2018-12-18T13:03:35.077Z,3.47
2018-12-18T13:06:03.737Z,2.70
2018-12-18T13:08:35.134Z,4.23
2018-12-18T13:11:03.018Z,2.80
2018-12-18T13:13:31.810Z,2.73
2018-12-18T13:15:59.797Z,3.37
2018-12-18T13:18:28.719Z,4.30
2018-12-18T13:20:56.890Z,4.93
2018-12-18T13:23:25.209Z,5.27
2018-12-18T13:25:53.292Z,4.33
2018-12-18T13:28:21.463Z,5.97
2018-12-18T13:30:49.585Z,4.50
2018-12-18T13:33:18.548Z,11.23
2018-12-18T13:35:46.758Z,7.20
2018-12-18T13:38:14.951Z,4.73
2018-12-18T13:40:43.070Z,4.00
2018-12-18T13:43:13.168Z,3.67
2018-12-18T13:45:42.139Z,6.37
2018-12-18T13:48:10.208Z,6.53
2018-12-18T13:50:38.228Z,4.00
2018-12-18T13:53:07.362Z,5.73
2018-12-18T13:55:36.708Z,3.70
2018-12-18T13:58:05.194Z,2.70
2018-12-18T14:00:33.402Z,3.07
2018-12-18T14:03:02.160Z,3.67
2018-12-18T14:05:30.001Z,2.80
2018-12-18T14:08:00.857Z,2.00
2018-12-18T14:10:28.883Z,2.83
2018-12-18T14:12:57.947Z,3.13
2018-12-18T14:15:26.027Z,4.10
2018-12-18T14:17:56.530Z,3.07
2018-12-18T14:20:24.580Z,2.20
2018-12-18T14:22:52.668Z,1.70
2018-12-18T14:25:20.665Z,2.00
2018-12-18T14:27:48.829Z,2.23
2018-12-18T14:30:16.740Z,1.90
2018-12-18T14:32:44.712Z,2.73
2018-12-18T14:35:12.900Z,2.90
2018-12-18T14:37:40.968Z,3.40
2018-12-18T14:40:09.192Z,4.87
2018-12-18T14:42:37.942Z,3.17
2018-12-18T14:45:06.676Z,2.07
2018-12-18T14:47:34.549Z,3.50
2018-12-18T14:50:02.932Z,3.93
2018-12-18T14:52:31.183Z,4.50
2018-12-18T14:55:00.049Z,3.23
2018-12-18T14:57:28.854Z,3.03
2018-12-18T14:59:56.877Z,6.07
2018-12-18T15:02:24.996Z,4.53
2018-12-18T15:04:53.001Z,7.07
2018-12-18T15:07:21.099Z,3.83
2018-12-18T15:09:49.134Z,4.77
2018-12-18T15:12:17.765Z,8.10
2018-12-18T15:14:45.639Z,7.97
2018-12-18T15:17:14.504Z,3.43
2018-12-18T15:19:42.598Z,4.07
2018-12-18T15:22:11.676Z,4.77
2018-12-18T15:24:40.449Z,9.73
2018-12-18T15:27:09.293Z,8.37
2018-12-18T15:29:37.382Z,7.83
2018-12-18T15:32:05.883Z,5.43
2018-12-18T15:34:37.308Z,6.23
2018-12-18T15:37:09.740Z,7.87
2018-12-18T15:39:37.489Z,10.23
2018-12-18T15:42:05.675Z,5.17
2018-12-18T15:44:33.735Z,7.47
2018-12-18T15:47:02.586Z,6.23
2018-12-18T15:49:30.621Z,6.17
2018-12-18T15:51:58.195Z,8.43
2018-12-18T15:54:25.733Z,7.07
2018-12-18T15:56:53.249Z,9.83
2018-12-18T15:59:20.791Z,17.30
2018-12-18T16:01:48.688Z,17.87
2018-12-18T16:04:16.233Z,15.70
2018-12-18T16:06:43.748Z,12.43
2018-12-18T16:09:11.307Z,12.23
2018-12-18T16:11:39.678Z,12.73
2018-12-18T16:14:07.817Z,11.83
2018-12-18T16:16:35.399Z,8.87
2018-12-18T16:19:02.938Z,7.43
2018-12-18T16:21:31.420Z,7.57
2018-12-18T16:23:59.153Z,6.90
2018-12-18T16:26:26.843Z,6.20
2018-12-18T16:28:54.491Z,11.77
2018-12-18T16:31:22.214Z,15.23
2018-12-18T16:33:49.872Z,14.57
2018-12-18T16:36:17.455Z,15.03
2018-12-18T16:38:45.338Z,16.50
2018-12-18T16:41:12.968Z,11.57
2018-12-18T16:43:40.497Z,15.57
2018-12-18T16:46:08.067Z,16.77
2018-12-18T16:48:35.582Z,17.90
2018-12-18T16:51:03.191Z,23.73
2018-12-18T16:53:30.707Z,23.53
2018-12-18T16:55:58.546Z,28.37
2018-12-18T16:58:28.302Z,25.67
2018-12-18T17:00:56.117Z,20.80
2018-12-18T17:03:23.647Z,26.87
2018-12-18T17:05:51.193Z,23.13
2018-12-18T17:08:18.715Z,19.03
2018-12-18T17:10:46.362Z,15.87
2018-12-18T17:13:14.398Z,16.73
2018-12-18T17:15:42.163Z,17.30
2018-12-18T17:18:10.213Z,20.30
2018-12-18T17:20:38.688Z,20.07
2018-12-18T17:23:06.872Z,16.33
2018-12-18T17:25:34.735Z,15.73
2018-12-18T17:28:03.384Z,16.63
2018-12-18T17:30:31.911Z,13.90
2018-12-18T17:33:00.776Z,16.10
2018-12-18T17:35:28.842Z,15.37
2018-12-18T17:37:56.395Z,19.17
2018-12-18T17:40:24.143Z,15.27
2018-12-18T17:42:52.120Z,16.30
2018-12-18T17:45:21.054Z,14.80
2018-12-18T17:47:49.577Z,18.83
2018-12-18T17:50:18.553Z,14.60
2018-12-18T17:52:47.157Z,17.47
2018-12-18T17:55:14.748Z,20.13
2018-12-18T17:57:42.305Z,16.33
2018-12-18T18:00:10.041Z,18.97
2018-12-18T18:02:38.029Z,12.40
2018-12-18T18:05:06.522Z,20.63
2018-12-18T18:07:34.857Z,17.60
2018-12-18T18:10:03.106Z,13.13
2018-12-18T18:12:30.777Z,16.73
2018-12-18T18:14:58.620Z,13.80
2018-12-18T18:17:27.582Z,14.93
2018-12-18T18:19:55.329Z,16.77
2018-12-18T18:22:24.613Z,13.77
2018-12-18T18:24:54.529Z,13.30
2018-12-18T18:27:22.444Z,17.37
2018-12-18T18:29:50.216Z,14.83
2018-12-18T18:34:55.525Z,15.90
2018-12-18T18:37:23.081Z,13.70
2018-12-18T18:39:50.770Z,11.70
2018-12-18T18:42:18.332Z,18.63
2018-12-18T18:44:47.725Z,13.23
2018-12-18T18:47:15.403Z,21.77
2018-12-18T18:49:43.283Z,18.63
2018-12-18T18:52:12.391Z,22.40
2018-12-18T18:54:40.489Z,21.77
2018-12-18T18:57:08.176Z,18.60
2018-12-18T18:59:35.767Z,18.93
2018-12-18T19:02:03.846Z,18.97
2018-12-18T19:04:31.616Z,23.23
2018-12-18T19:06:59.307Z,22.87
2018-12-18T19:09:27.627Z,24.40
2018-12-18T19:11:55.308Z,27.37
2018-12-18T19:14:23.172Z,28.00
2018-12-18T19:16:50.844Z,26.60
2018-12-18T19:19:18.417Z,29.13
2018-12-18T19:21:46.335Z,32.80
2018-12-18T19:24:14.397Z,35.93
2018-12-18T19:26:44.831Z,36.43
2018-12-18T19:29:13.758Z,24.53
2018-12-18T19:31:41.524Z,21.00
2018-12-18T19:34:09.089Z,23.43
2018-12-18T19:36:38.381Z,31.53
2018-12-18T19:39:07.531Z,30.80
2018-12-18T19:41:35.156Z,29.10
2018-12-18T19:44:03.087Z,27.10
2018-12-18T19:46:31.086Z,30.13
2018-12-18T19:48:58.650Z,26.37
2018-12-18T19:51:27.002Z,27.40
2018-12-18T19:53:54.596Z,24.37
2018-12-18T19:56:23.759Z,27.80
2018-12-18T19:58:51.286Z,24.47
2018-12-18T20:01:19.029Z,25.37
2018-12-18T20:03:46.580Z,24.70
2018-12-18T20:06:14.187Z,25.03
2018-12-18T20:08:41.728Z,23.47
2018-12-18T20:11:09.259Z,23.97
2018-12-18T20:13:36.809Z,27.80
2018-12-18T20:16:04.335Z,26.17
2018-12-18T20:18:32.202Z,24.80
2018-12-18T20:20:59.920Z,23.43
2018-12-18T20:23:27.485Z,25.10
2018-12-18T20:25:55.097Z,29.33
2018-12-18T20:28:22.689Z,32.43
2018-12-18T20:30:50.217Z,27.10
2018-12-18T20:33:17.760Z,24.70
2018-12-18T20:35:45.276Z,24.70
2018-12-18T20:38:16.839Z,22.57
2018-12-18T20:40:43.312Z,26.30
2018-12-18T20:43:10.982Z,22.33
2018-12-18T20:45:38.516Z,20.70
2018-12-18T20:48:06.077Z,25.27
2018-12-18T20:50:33.605Z,21.10
2018-12-18T20:53:01.172Z,19.10
2018-12-18T20:55:28.712Z,24.00
2018-12-18T20:57:58.588Z,19.50
2018-12-18T21:00:26.217Z,18.63
2018-12-18T21:03:02.603Z,18.63
2018-12-18T21:05:30.132Z,19.73
2018-12-18T21:07:57.734Z,17.33
2018-12-18T21:10:25.265Z,16.83
2018-12-18T21:12:54.815Z,17.50
2018-12-18T21:15:23.257Z,18.40
2018-12-18T21:17:50.903Z,17.67
2018-12-18T21:20:18.438Z,16.87
2018-12-18T21:22:45.980Z,18.83
2018-12-18T21:25:18.900Z,14.57
2018-12-18T21:27:43.082Z,15.93
2018-12-18T21:30:10.766Z,16.73
2018-12-18T21:32:38.295Z,40.47
2018-12-18T21:35:05.953Z,84.93
2018-12-18T21:37:33.489Z,34.03
2018-12-18T21:40:01.040Z,50.00
2018-12-18T21:42:28.551Z,73.50
2018-12-18T21:44:56.212Z,60.20
2018-12-18T21:47:23.728Z,28.57
2018-12-18T21:49:51.289Z,16.57
2018-12-18T21:52:18.963Z,14.33
2018-12-18T21:54:46.517Z,15.67
2018-12-18T21:57:14.059Z,16.93
2018-12-18T21:59:41.609Z,15.50
2018-12-18T22:02:09.140Z,17.77
2018-12-18T22:04:36.696Z,15.23
2018-12-18T22:07:04.904Z,17.33
2018-12-18T22:09:32.467Z,16.33
2018-12-18T22:11:59.985Z,21.50
2018-12-18T22:14:27.536Z,37.47
2018-12-18T22:16:55.060Z,24.50
2018-12-18T22:19:22.610Z,23.63
2018-12-18T22:21:50.129Z,26.03
2018-12-18T22:24:17.698Z,84.47
2018-12-18T22:26:45.219Z,84.43
2018-12-18T22:29:12.813Z,39.77
2018-12-18T22:31:40.617Z,24.00
2018-12-18T22:34:08.204Z,31.80
2018-12-18T22:36:35.751Z,29.20
2018-12-18T22:39:05.818Z,23.43
2018-12-18T22:41:33.506Z,24.23
2018-12-18T22:44:01.589Z,21.77
2018-12-18T22:46:29.242Z,17.60
2018-12-18T22:48:59.376Z,20.03
2018-12-18T22:51:27.679Z,20.70
2018-12-18T22:53:55.894Z,17.00
2018-12-18T22:56:24.752Z,17.77
2018-12-18T22:58:53.114Z,18.33
2018-12-18T23:01:26.561Z,15.70
2018-12-18T23:03:54.165Z,15.80
2018-12-18T23:06:22.367Z,101.00
2018-12-18T23:08:56.016Z,22.63
2018-12-18T23:11:24.177Z,19.90
2018-12-18T23:13:53.359Z,17.07
2018-12-18T23:16:21.550Z,21.03
2018-12-18T23:18:49.694Z,18.63
2018-12-18T23:21:17.880Z,15.97
2018-12-18T23:23:46.742Z,16.80
2018-12-18T23:26:15.149Z,14.87
2018-12-18T23:28:44.150Z,13.63
2018-12-18T23:31:12.010Z,14.10
2018-12-18T23:33:39.639Z,14.37
2018-12-18T23:36:07.369Z,14.00
2018-12-18T23:38:35.126Z,18.80
2018-12-18T23:41:03.037Z,21.03
2018-12-18T23:43:30.846Z,18.10
2018-12-18T23:45:58.773Z,17.13
2018-12-18T23:48:26.783Z,15.50
2018-12-18T23:50:54.869Z,16.07
2018-12-18T23:53:22.726Z,15.57
2018-12-18T23:55:50.949Z,22.03
2018-12-18T23:58:18.917Z,14.13
